Time;durP1;ratioP1;P1;durP2;ratioP2;P2;SDS_P1;SDS_P2;PMS_P1;PMS_P2;Temp;Humidity;BMP_temperature;BMP_pressure;BME280_temperature;BME280_humidity;BME280_pressure;Samples;Min_cycle;Max_cycle;Signal;HPM_P1;HPM_P2
2022/02/02 00:04:23;;;;;;;33.50;16.50;;;;;;;-1.21;82.21;96495.13;109819;1247;69525;-65
2022/02/02 00:09:51;;;;;;;35.70;16.80;;;;;;;-1.22;82.46;96494.34;109883;1247;59680;-65
2022/02/02 00:17:47;;;;;;;37.10;17.30;;;;;;;-1.25;82.41;96484.89;110217;1244;67466;-67
2022/02/02 00:20:26;;;;;;;22.50;12.40;;;;;;;-1.26;82.31;96487.81;110200;1247;59771;-68
2022/02/02 00:22:59;;;;;;;24.00;11.50;;;;;;;-1.24;81.79;96493.20;110328;1246;59685;-66
2022/02/02 00:25:34;;;;;;;55.80;29.40;;;;;;;-1.16;81.23;96493.08;110343;1246;70857;-65
2022/02/02 00:28:06;;;;;;;43.70;22.40;;;;;;;-1.20;81.72;96489.98;110345;1247;67834;-67
2022/02/02 00:30:38;;;;;;;46.50;25.60;;;;;;;-1.21;81.47;96489.50;110399;1246;69544;-66
2022/02/02 00:35:42;;;;;;;50.60;27.00;;;;;;;-1.26;82.45;96493.27;110575;1244;59692;-67
2022/02/02 00:38:11;;;;;;;44.10;22.50;;;;;;;-1.25;82.49;96485.88;110501;1245;71180;-66
2022/02/02 00:40:46;;;;;;;29.10;17.30;;;;;;;-1.24;82.23;96482.44;109889;1247;67920;-65
2022/02/02 00:43:16;;;;;;;28.50;16.50;;;;;;;-1.22;82.02;96483.06;110222;1247;68679;-68
2022/02/02 00:45:47;;;;;;;42.90;21.70;;;;;;;-1.21;82.04;96481.47;110303;1246;59674;-67
2022/02/02 00:48:28;;;;;;;27.10;17.20;;;;;;;-1.21;81.96;96481.63;110489;1244;59678;-66
2022/02/02 00:51:03;;;;;;;23.60;12.30;;;;;;;-1.19;81.95;96480.38;110191;1244;70942;-66
2022/02/02 00:53:33;;;;;;;21.20;12.70;;;;;;;-1.18;81.62;96476.54;110392;1245;68649;-66
2022/02/02 00:56:03;;;;;;;22.00;14.30;;;;;;;-1.16;81.55;96473.05;110364;1246;69328;-67
2022/02/02 00:58:35;;;;;;;35.60;18.90;;;;;;;-1.16;81.57;96469.09;110228;1247;59683;-68
2022/02/02 01:01:06;;;;;;;23.60;15.10;;;;;;;-1.15;81.71;96472.81;110552;1245;59758;-65
2022/02/02 01:03:35;;;;;;;22.80;14.60;;;;;;;-1.13;81.64;96473.59;110289;1246;71357;-65
2022/02/02 01:06:07;;;;;;;36.50;17.90;;;;;;;-1.12;81.40;96469.44;110155;1247;68183;-65
2022/02/02 01:09:03;;;;;;;33.90;17.10;;;;;;;-1.13;81.71;96466.06;110131;1247;68797;-66
2022/02/02 01:20:05;;;;;;;21.10;13.00;;;;;;;-1.09;81.68;96448.98;110033;1246;68727;-65
2022/02/02 01:28:11;;;;;;;25.10;14.60;;;;;;;-1.04;81.80;96446.20;110281;1247;59648;-65
2022/02/02 01:30:41;;;;;;;;;;;;;;;-1.02;81.10;96443.03;110348;1244;70812;-66
2022/02/02 01:33:11;;;;;;;28.00;14.90;;;;;;;-1.00;80.99;96435.81;110321;1244;68761;-67
2022/02/02 01:35:43;;;;;;;29.50;18.80;;;;;;;-0.98;80.14;96431.95;110101;1246;69391;-65
2022/02/02 01:38:13;;;;;;;32.70;17.00;;;;;;;-1.01;80.40;96428.62;110138;1247;60068;-66
2022/02/02 01:40:49;;;;;;;46.00;22.60;;;;;;;-1.05;80.39;96428.63;110274;1247;59630;-65
2022/02/02 01:43:25;;;;;;;46.30;25.60;;;;;;;-1.10;80.77;96429.19;110198;1247;71681;-66
2022/02/02 01:45:59;;;;;;;44.20;25.40;;;;;;;-1.15;81.07;96426.66;110388;1245;67801;-66
2022/02/02 01:48:45;;;;;;;33.20;18.60;;;;;;;-1.16;81.16;96423.63;110354;1245;68614;-66
2022/02/02 01:56:29;;;;;;;33.30;17.90;;;;;;;-1.15;81.57;96414.36;110173;1247;71519;-64
2022/02/02 01:59:10;;;;;;;31.20;19.40;;;;;;;-1.14;81.46;96410.38;110185;1247;68578;-64
2022/02/02 02:01:40;;;;;;;39.80;22.00;;;;;;;-1.13;81.54;96405.20;110283;1246;69409;-66
2022/02/02 02:04:11;;;;;;;49.30;26.10;;;;;;;-1.11;81.90;96405.13;110411;1244;59733;-66
2022/02/02 02:06:40;;;;;;;68.10;34.20;;;;;;;-1.10;81.66;96400.46;110553;1244;59681;-68
2022/02/02 02:09:10;;;;;;;53.50;30.10;;;;;;;-1.09;81.83;96398.00;110348;1245;71523;-65
2022/02/02 02:11:43;;;;;;;47.90;27.10;;;;;;;-1.09;81.86;96399.40;110257;1247;68677;-66
2022/02/02 02:17:01;;;;;;;62.20;33.00;;;;;;;-1.11;81.28;96391.63;110069;1247;59696;-66
2022/02/02 02:19:33;;;;;;;70.30;41.40;;;;;;;-1.15;81.29;96387.86;110112;1247;59621;-66
2022/02/02 02:22:09;;;;;;;50.70;26.50;;;;;;;-1.20;81.44;96378.16;110363;1246;70787;-66
2022/02/02 02:24:41;;;;;;;35.00;21.70;;;;;;;-1.20;81.78;96372.86;110260;1247;66740;-65
2022/02/02 02:27:13;;;;;;;38.00;21.50;;;;;;;-1.20;81.81;96370.61;110298;1247;68564;-67
2022/02/02 02:35:42;;;;;;;38.30;20.90;;;;;;;-1.19;81.54;96370.92;110263;1247;70881;-66
2022/02/02 02:38:43;;;;;;;36.30;19.90;;;;;;;-1.21;81.67;96365.70;110310;1244;67843;-67
2022/02/02 02:58:20;;;;;;;35.30;18.70;;;;;;;-1.40;81.01;96353.54;110223;1247;59690;-66
2022/02/02 03:01:09;;;;;;;65.70;29.40;;;;;;;-1.41;81.46;96361.08;110065;1248;59622;-65
2022/02/02 03:35:02;;;;;;;31.70;14.30;;;;;;;-1.58;82.38;96380.21;110445;1246;68534;-65
2022/02/02 04:07:21;;;;;;;31.80;15.50;;;;;;;-1.37;81.66;96362.99;110259;1246;59720;-67
2022/02/02 04:09:51;;;;;;;45.20;20.50;;;;;;;-1.36;81.92;96360.37;110554;1244;59741;-66
2022/02/02 04:13:07;;;;;;;29.20;14.70;;;;;;;-1.35;81.93;96362.71;110491;1246;70118;-65
2022/02/02 04:56:48;;;;;;;39.10;17.60;;;;;;;-1.08;80.74;96371.98;110319;1244;68583;-65
2022/02/02 04:59:24;;;;;;;24.20;11.80;;;;;;;-1.10;80.67;96366.08;110140;1247;68808;-68
2022/02/02 05:07:26;;;;;;;37.30;19.10;;;;;;;-1.17;80.39;96363.48;110168;1244;71573;-64
2022/02/02 05:10:22;;;;;;;24.90;12.50;;;;;;;-1.21;80.46;96360.40;110054;1247;67953;-64
2022/02/02 05:15:48;;;;;;;30.20;14.30;;;;;;;-1.28;80.68;96360.38;110221;1247;59651;-69
2022/02/02 05:43:37;;;;;;;39.60;19.60;;;;;;;-1.87;81.27;96361.09;110313;1244;59740;-66
2022/02/02 05:53:42;;;;;;;40.60;17.40;;;;;;;-1.88;82.23;96364.40;110531;1244;68624;-64
2022/02/02 05:56:11;;;;;;;23.60;12.70;;;;;;;-1.87;82.35;96371.19;110346;1244;59970;-66
2022/02/02 05:58:44;;;;;;;20.80;11.00;;;;;;;-1.85;82.10;96375.69;110151;1247;59682;-67
2022/02/02 06:01:15;;;;;;;45.40;21.50;;;;;;;-1.81;82.06;96372.45;110502;1244;71832;-67
2022/02/02 06:03:49;;;;;;;40.70;19.30;;;;;;;-1.78;82.49;96373.55;110405;1244;67597;-67
2022/02/02 06:06:22;;;;;;;29.90;17.40;;;;;;;-1.78;82.82;96376.78;110451;1244;67688;-65
2022/02/02 06:08:53;;;;;;;41.70;18.60;;;;;;;-1.74;82.70;96377.16;110204;1245;59750;-65
2022/02/02 06:11:24;;;;;;;42.10;21.20;;;;;;;-1.70;82.51;96376.33;110381;1244;59609;-67
2022/02/02 06:13:59;;;;;;;34.90;19.10;;;;;;;-1.68;82.54;96370.56;110285;1245;71625;-65
2022/02/02 06:16:29;;;;;;;39.80;20.00;;;;;;;-1.66;82.49;96375.63;110128;1247;67879;-65
2022/02/02 06:19:02;;;;;;;48.80;23.60;;;;;;;-1.67;82.61;96377.38;110132;1246;69915;-67
2022/02/02 06:21:34;;;;;;;45.20;22.90;;;;;;;-1.67;82.35;96377.88;110278;1246;59687;-64
2022/02/02 06:24:17;;;;;;;48.50;24.00;;;;;;;-1.67;82.40;96374.45;110178;1247;59729;-65
2022/02/02 06:26:56;;;;;;;45.20;23.50;;;;;;;-1.66;82.81;96377.51;110360;1247;71519;-66
2022/02/02 06:29:29;;;;;;;43.70;23.90;;;;;;;-1.62;82.65;96373.92;110353;1245;68142;-65
2022/02/02 06:32:01;;;;;;;52.60;27.40;;;;;;;-1.59;82.54;96374.30;110212;1247;69825;-67
2022/02/02 06:34:33;;;;;;;52.50;27.60;;;;;;;-1.60;82.38;96375.19;110225;1247;59738;-65
2022/02/02 06:37:03;;;;;;;46.50;26.00;;;;;;;-1.59;82.41;96371.38;110382;1245;59694;-66
2022/02/02 06:39:33;;;;;;;53.40;27.80;;;;;;;-1.52;82.29;96370.44;110353;1247;72115;-67
2022/02/02 06:42:03;;;;;;;41.00;23.50;;;;;;;-1.48;81.81;96370.11;110218;1247;68644;-66
2022/02/02 06:44:34;;;;;;;42.30;22.50;;;;;;;-1.46;81.34;96366.92;110528;1245;68700;-65
2022/02/02 06:47:03;;;;;;;45.60;24.00;;;;;;;-1.42;80.98;96366.77;110418;1247;59730;-64
2022/02/02 06:49:34;;;;;;;36.50;20.50;;;;;;;-1.41;80.21;96370.65;110229;1246;59657;-66
2022/02/02 06:52:13;;;;;;;39.80;21.80;;;;;;;-1.41;79.48;96378.51;110523;1246;71556;-66
2022/02/02 06:55:12;;;;;;;40.70;21.70;;;;;;;-1.42;79.34;96379.07;110375;1245;68602;-67
2022/02/02 06:58:17;;;;;;;37.20;17.60;;;;;;;-1.44;78.73;96374.19;110485;1247;69142;-68
2022/02/02 07:01:09;;;;;;;29.90;15.30;;;;;;;-1.41;77.74;96364.52;109810;1247;552686;-67
2022/02/02 07:06:48;;;;;;;31.70;16.10;;;;;;;-1.18;76.33;96375.65;110110;1247;71768;-64
2022/02/02 07:12:22;;;;;;;27.50;12.20;;;;;;;-0.62;73.92;96379.88;110065;1247;68717;-64
2022/02/02 07:16:00;;;;;;;27.40;14.60;;;;;;;-0.22;72.87;96374.48;110096;1247;59757;-64
2022/02/02 07:23:32;;;;;;;30.60;17.80;;;;;;;0.55;71.63;96350.52;110122;1247;68602;-65
2022/02/02 07:33:51;;;;;;;25.60;14.70;;;;;;;1.25;67.41;96364.48;110242;1247;71704;-65
2022/02/02 07:36:32;;;;;;;30.70;15.60;;;;;;;1.37;67.81;96364.01;110113;1247;68747;-67
2022/02/02 07:39:08;;;;;;;25.10;16.30;;;;;;;1.53;66.58;96363.48;110098;1247;70047;-66
2022/02/02 07:41:43;;;;;;;27.50;16.90;;;;;;;1.41;65.95;96364.46;110099;1247;59668;-65
2022/02/02 07:44:18;;;;;;;23.10;14.30;;;;;;;1.16;66.55;96358.40;110109;1247;59694;-65
2022/02/02 07:46:51;;;;;;;29.70;16.80;;;;;;;1.18;67.21;96357.65;110440;1245;71997;-65
2022/02/02 07:49:34;;;;;;;33.70;16.60;;;;;;;1.12;66.23;96356.55;110055;1247;67910;-69
2022/02/02 07:52:05;;;;;;;28.90;16.00;;;;;;;1.03;66.31;96352.08;110281;1247;68603;-66
2022/02/02 07:54:39;;;;;;;24.00;14.60;;;;;;;0.95;66.27;96357.60;110269;1246;59754;-64
2022/02/02 07:57:27;;;;;;;23.30;12.50;;;;;;;1.10;66.79;96362.70;110008;1247;59650;-68
2022/02/02 08:00:13;;;;;;;26.80;13.40;;;;;;;1.38;65.51;96366.89;110044;1247;71009;-67
2022/02/02 08:03:07;;;;;;;28.50;14.80;;;;;;;1.36;64.13;96366.11;110032;1247;69117;-66
2022/02/02 08:05:42;;;;;;;23.20;13.10;;;;;;;1.01;64.35;96359.70;110413;1247;68970;-69
2022/02/02 08:10:49;;;;;;;26.60;15.00;;;;;;;0.57;65.78;96367.09;110265;1247;59619;-68
2022/02/02 08:13:23;;;;;;;26.40;14.70;;;;;;;0.26;65.92;96369.46;110228;1247;71463;-69
2022/02/02 08:16:00;;;;;;;29.20;17.50;;;;;;;0.03;66.71;96369.86;110536;1247;68683;-69
2022/02/02 08:18:29;;;;;;;21.60;11.50;;;;;;;-0.12;67.46;96374.02;110512;1246;69422;-66
2022/02/02 08:20:58;;;;;;;25.20;13.80;;;;;;;-0.29;67.60;96370.50;110250;1247;59733;-68
2022/02/02 08:23:26;;;;;;;24.50;15.20;;;;;;;-0.33;68.44;96362.31;110418;1246;59671;-69
2022/02/02 08:25:58;;;;;;;29.50;16.60;;;;;;;-0.33;68.75;96357.52;110182;1247;71757;-70
2022/02/02 08:28:27;;;;;;;30.90;15.00;;;;;;;-0.37;68.17;96357.04;110318;1247;67795;-69
2022/02/02 08:30:56;;;;;;;27.20;14.80;;;;;;;-0.45;68.77;96352.61;110466;1246;68484;-69
2022/02/02 08:33:33;;;;;;;27.60;15.60;;;;;;;-0.46;68.76;96352.32;110465;1247;59682;-68
2022/02/02 08:36:04;;;;;;;30.00;16.20;;;;;;;-0.48;68.60;96347.09;110330;1245;59744;-67
2022/02/02 08:38:52;;;;;;;26.80;14.70;;;;;;;-0.48;68.45;96350.00;110173;1247;71956;-67
2022/02/02 08:41:30;;;;;;;25.70;15.20;;;;;;;-0.50;68.37;96353.48;110511;1245;68736;-67
2022/02/02 08:44:13;;;;;;;28.80;15.90;;;;;;;-0.45;68.07;96354.30;110405;1247;69834;-67
2022/02/02 08:46:48;;;;;;;23.30;12.60;;;;;;;-0.44;68.06;96350.34;110323;1247;60128;-65
2022/02/02 08:49:17;;;;;;;27.40;14.00;;;;;;;-0.44;67.92;96350.69;110491;1244;59684;-68
2022/02/02 08:51:47;;;;;;;27.10;15.40;;;;;;;-0.40;68.45;96353.23;110250;1247;71467;-66
2022/02/02 08:59:39;;;;;;;23.30;11.40;;;;;;;-0.10;67.36;96347.69;110113;1247;59692;-67
2022/02/02 09:02:13;;;;;;;20.30;12.00;;;;;;;0.06;67.00;96351.77;110515;1246;59691;-66
2022/02/02 09:07:30;;;;;;;28.40;16.00;;;;;;;0.10;66.86;96353.77;110296;1247;68357;-66
2022/02/02 09:31:47;;;;;;;25.10;13.20;;;;;;;0.16;66.69;96348.52;110404;1246;71585;-67
2022/02/02 09:34:18;;;;;;;22.30;12.60;;;;;;;0.16;67.25;96340.65;110586;1246;68491;-68
2022/02/02 09:36:48;;;;;;;23.40;14.00;;;;;;;0.18;66.90;96337.82;110529;1247;68616;-67
2022/02/02 09:39:27;;;;;;;22.40;11.50;;;;;;;0.19;67.18;96336.36;110578;1247;59718;-66
2022/02/02 09:42:11;;;;;;;20.80;11.00;;;;;;;0.24;67.73;96330.50;110236;1247;59743;-67
2022/02/02 09:44:43;;;;;;;22.20;13.30;;;;;;;0.43;67.10;96332.98;110534;1247;72155;-67
2022/02/02 09:47:30;;;;;;;23.30;12.40;;;;;;;0.47;66.70;96334.98;110536;1244;67938;-66
2022/02/02 09:50:11;;;;;;;24.70;12.60;;;;;;;0.54;66.70;96326.08;110509;1245;70023;-66
2022/02/02 09:52:43;;;;;;;22.70;12.90;;;;;;;0.62;66.84;96320.17;110498;1245;59682;-67
2022/02/02 09:55:20;;;;;;;22.40;11.40;;;;;;;0.74;66.39;96320.27;110579;1244;60129;-66
2022/02/02 10:06:30;;;;;;;22.10;11.40;;;;;;;1.32;64.55;96292.33;110344;1245;59747;-68
2022/02/02 10:11:54;;;;;;;;;;;;;;;1.63;63.16;96284.98;109647;1253;72102;-67
2022/02/02 10:14:49;;;;;;;20.20;10.60;;;;;;;1.78;62.78;96287.43;109743;1253;68439;-69
2022/02/02 10:17:29;;;;;;;20.30;11.00;;;;;;;1.88;62.93;96281.54;109694;1253;68411;-69
2022/02/02 10:20:15;;;;;;;21.50;12.70;;;;;;;1.92;62.40;96277.86;109753;1252;59729;-68
2022/02/02 10:22:46;;;;;;;21.30;10.60;;;;;;;1.86;62.59;96275.13;109739;1253;59827;-67
2022/02/02 10:25:32;;;;;;;20.20;13.00;;;;;;;1.75;62.90;96278.98;109759;1253;71516;-69
2022/02/02 10:28:16;;;;;;;20.90;11.50;;;;;;;1.68;63.03;96277.02;109737;1253;68093;-66
2022/02/02 10:30:53;;;;;;;22.00;12.60;;;;;;;1.71;63.81;96268.06;109743;1253;68754;-67
2022/02/02 10:33:28;;;;;;;18.00;11.90;;;;;;;1.83;62.97;96264.64;109642;1252;59868;-67
2022/02/02 10:36:08;;;;;;;20.40;10.30;;;;;;;1.84;63.07;96261.52;109678;1252;59665;-66
2022/02/02 10:38:48;;;;;;;20.80;11.80;;;;;;;1.85;63.04;96261.25;109700;1253;70638;-68
2022/02/02 10:41:28;;;;;;;20.40;13.00;;;;;;;1.88;62.90;96263.86;109758;1253;69181;-68
2022/02/02 10:44:25;;;;;;;15.30;10.80;;;;;;;1.83;62.64;96260.55;109721;1253;68456;-69
2022/02/02 10:49:37;;;;;;;21.00;11.80;;;;;;;1.83;62.24;96261.88;110346;1247;59682;-64
2022/02/02 10:52:14;;;;;;;19.50;11.90;;;;;;;1.70;62.40;96263.80;110393;1247;71546;-69
2022/02/02 10:57:48;;;;;;;19.80;11.90;;;;;;;1.47;62.88;96273.34;110157;1246;68681;-67
2022/02/02 11:00:34;;;;;;;16.30;9.70;;;;;;;1.40;63.14;96271.31;110557;1244;59662;-65
2022/02/02 11:08:39;;;;;;;22.20;13.00;;;;;;;1.46;63.41;96264.95;110544;1244;69412;-65
2022/02/02 11:11:11;;;;;;;17.30;10.10;;;;;;;1.48;63.21;96263.14;110509;1245;69483;-66
2022/02/02 11:13:42;;;;;;;17.00;9.20;;;;;;;1.44;62.47;96260.62;110376;1247;59662;-66
2022/02/02 11:16:18;;;;;;;16.30;10.40;;;;;;;1.46;62.25;96254.48;110376;1246;59766;-66
2022/02/02 11:18:48;;;;;;;18.80;11.50;;;;;;;1.50;62.45;96255.64;110575;1245;72151;-66
2022/02/02 11:21:18;;;;;;;;;;;;;;;1.53;62.38;96255.48;110532;1244;68020;-66
2022/02/02 11:23:52;;;;;;;17.20;10.80;;;;;;;1.59;62.68;96258.92;110550;1246;70095;-67
2022/02/02 11:26:42;;;;;;;17.40;10.50;;;;;;;1.61;62.73;96258.50;110534;1245;60036;-67
2022/02/02 11:29:36;;;;;;;16.90;9.80;;;;;;;1.63;61.93;96254.29;110487;1247;59670;-67
2022/02/02 11:32:08;;;;;;;17.80;9.20;;;;;;;1.52;62.35;96253.48;110557;1244;71979;-66
2022/02/02 11:34:40;;;;;;;19.30;10.10;;;;;;;1.49;62.42;96252.45;110220;1245;69197;-68
2022/02/02 11:37:12;;;;;;;16.00;8.90;;;;;;;1.44;62.28;96251.86;110545;1247;70041;-67
2022/02/02 11:39:50;;;;;;;18.80;11.20;;;;;;;1.45;62.87;96259.02;110549;1245;59739;-66
2022/02/02 11:43:31;;;;;;;15.10;9.50;;;;;;;1.47;62.54;96260.10;110448;1244;59745;-66
2022/02/02 11:45:39;;;;;;;17.20;9.90;;;;;;;1.51;62.82;96257.83;110461;1245;71680;-66
2022/02/02 11:48:16;;;;;;;15.90;10.10;;;;;;;1.52;62.41;96252.09;110596;1245;69311;-66
2022/02/02 11:50:46;;;;;;;15.50;8.90;;;;;;;1.54;62.04;96249.23;110560;1244;69895;-66
2022/02/02 11:53:57;;;;;;;14.30;7.40;;;;;;;1.64;62.06;96247.13;110514;1244;59758;-66
2022/02/02 11:56:28;;;;;;;;;;;;;;;1.78;61.70;96248.10;110457;1244;59653;-66
2022/02/02 11:58:58;;;;;;;19.80;11.50;;;;;;;1.74;61.90;96251.39;110317;1245;70905;-66
2022/02/02 12:01:44;;;;;;;12.80;8.20;;;;;;;1.71;62.24;96248.67;110595;1245;68728;-66
2022/02/02 12:04:28;;;;;;;19.00;10.50;;;;;;;1.75;62.30;96251.32;110434;1244;69426;-67
2022/02/02 12:07:04;;;;;;;15.80;9.60;;;;;;;1.73;62.24;96250.27;110489;1244;59736;-66
2022/02/02 12:09:53;;;;;;;15.80;9.00;;;;;;;1.75;62.58;96247.23;110545;1244;59756;-67
2022/02/02 12:27:45;;;;;;;17.10;10.10;;;;;;;1.77;62.02;96251.10;110528;1245;59793;-68
2022/02/02 12:47:00;;;;;;;15.10;9.20;;;;;;;1.99;61.61;96239.29;110488;1247;68907;-68
2022/02/02 13:00:35;;;;;;;16.70;9.20;;;;;;;1.69;62.34;96252.05;110513;1245;69221;-66
2022/02/02 13:03:05;;;;;;;15.10;8.40;;;;;;;1.64;62.31;96252.31;110473;1244;59690;-68
2022/02/02 13:05:38;;;;;;;16.20;9.20;;;;;;;1.57;62.54;96255.29;110515;1244;59654;-68
2022/02/02 13:08:10;;;;;;;14.80;8.20;;;;;;;1.57;62.84;96261.46;110219;1247;71932;-69
2022/02/02 13:10:39;;;;;;;14.10;9.20;;;;;;;1.57;62.92;96262.14;110571;1245;69286;-69
2022/02/02 13:13:19;;;;;;;15.20;9.10;;;;;;;1.55;63.13;96265.52;110535;1247;69835;-66
2022/02/02 13:15:57;;;;;;;;;;;;;;;1.51;62.89;96276.52;110554;1244;59683;-66
2022/02/02 13:18:43;;;;;;;17.20;8.90;;;;;;;1.51;63.16;96277.92;110487;1247;59700;-68
2022/02/02 13:26:36;;;;;;;12.90;7.10;;;;;;;1.41;62.76;96272.30;110524;1245;68460;-68
2022/02/02 13:29:37;;;;;;;15.10;8.10;;;;;;;1.38;62.92;96272.27;110554;1247;59748;-67
2022/02/02 13:32:16;;;;;;;13.50;8.10;;;;;;;1.36;62.88;96283.05;110541;1244;59615;-66
2022/02/02 13:35:03;;;;;;;12.70;7.40;;;;;;;1.22;63.05;96280.19;110454;1245;71623;-70
2022/02/02 13:37:48;;;;;;;14.70;9.00;;;;;;;1.19;63.39;96278.27;110282;1247;68004;-67
2022/02/02 13:46:18;;;;;;;14.80;8.50;;;;;;;1.02;64.22;96282.92;110529;1245;59736;-67
2022/02/02 13:49:42;;;;;;;14.30;8.20;;;;;;;1.01;64.20;96286.27;110206;1248;71543;-66
2022/02/02 13:52:33;;;;;;;14.60;8.50;;;;;;;1.02;64.43;96291.18;110406;1247;68686;-67
2022/02/02 13:55:45;;;;;;;15.10;8.40;;;;;;;0.96;64.70;96288.59;110432;1245;69491;-67
2022/02/02 13:58:43;;;;;;;17.10;9.10;;;;;;;0.97;64.66;96287.54;110076;1248;59716;-68
2022/02/02 14:33:54;;;;;;;14.90;8.10;;;;;;;0.98;65.35;96292.80;110491;1244;67119;-67
2022/02/02 14:36:28;;;;;;;14.70;7.60;;;;;;;0.97;65.16;96298.34;110185;1247;68668;-67
2022/02/02 14:39:16;;;;;;;14.00;9.00;;;;;;;0.95;65.25;96303.23;110559;1245;59673;-67
2022/02/02 14:41:58;;;;;;;13.00;6.70;;;;;;;0.94;65.13;96307.21;110483;1247;59720;-66
2022/02/02 14:44:34;;;;;;;14.50;7.50;;;;;;;0.94;65.27;96308.41;110432;1247;71963;-66
2022/02/02 14:47:29;;;;;;;14.10;7.80;;;;;;;0.98;65.36;96314.76;110338;1247;67862;-67
2022/02/02 14:50:11;;;;;;;14.40;7.40;;;;;;;0.99;65.45;96319.34;110227;1247;69608;-66
2022/02/02 15:29:12;;;;;;;27.60;16.80;;;;;;;1.13;65.53;96344.55;110448;1244;69148;-66
2022/02/02 15:31:44;;;;;;;27.00;18.10;;;;;;;1.09;65.78;96350.52;110247;1247;69340;-67
2022/02/02 15:34:42;;;;;;;33.90;20.30;;;;;;;1.08;65.99;96349.95;110529;1245;59691;-66
2022/02/02 15:37:34;;;;;;;41.90;26.80;;;;;;;1.03;66.00;96346.73;110432;1247;59674;-66
2022/02/02 15:40:11;;;;;;;43.20;26.10;;;;;;;0.99;65.98;96347.44;110554;1247;71363;-67
2022/02/02 15:43:00;;;;;;;;;;;;;;;0.95;66.42;96351.96;110564;1246;68987;-67
2022/02/02 15:54:44;;;;;;;25.30;14.90;;;;;;;0.94;66.32;96349.45;110342;1247;69401;-67
2022/02/02 16:02:10;;;;;;;23.10;15.50;;;;;;;0.84;66.51;96362.49;110612;1244;59676;-66
2022/02/02 16:04:40;;;;;;;32.70;19.20;;;;;;;0.84;66.57;96367.13;110210;1247;59791;-66
2022/02/02 16:07:19;;;;;;;37.70;24.90;;;;;;;0.83;66.81;96371.42;110407;1244;72152;-66
2022/02/02 16:09:54;;;;;;;34.40;22.10;;;;;;;0.81;66.81;96374.80;110553;1244;68545;-66
2022/02/02 16:15:30;;;;;;;38.70;22.50;;;;;;;0.79;66.93;96372.84;110492;1244;59694;-65
2022/02/02 16:31:53;;;;;;;47.00;33.20;;;;;;;0.68;68.23;96383.52;110345;1246;59755;-67
2022/02/02 16:37:04;;;;;;;36.70;21.80;;;;;;;0.64;68.06;96386.14;110406;1245;68663;-69
2022/02/02 16:39:39;;;;;;;23.80;14.10;;;;;;;0.64;67.80;96385.75;110553;1244;69837;-66
2022/02/02 16:44:55;;;;;;;25.50;15.10;;;;;;;0.61;68.07;96381.65;110317;1245;59675;-66
2022/02/02 16:47:25;;;;;;;27.10;17.60;;;;;;;0.58;68.09;96386.09;110404;1244;71628;-68
2022/02/02 16:50:14;;;;;;;18.80;13.60;;;;;;;0.48;68.76;96392.70;110486;1247;69282;-69
2022/02/02 16:52:46;;;;;;;21.10;13.50;;;;;;;0.47;68.75;96402.54;110573;1244;69847;-69
2022/02/02 16:55:18;;;;;;;25.90;16.90;;;;;;;0.46;68.81;96408.41;110532;1244;59669;-67
2022/02/02 16:57:57;;;;;;;22.50;13.70;;;;;;;0.46;68.78;96412.52;110458;1244;59720;-69
2022/02/02 17:29:39;;;;;;;14.80;9.40;;;;;;;0.42;69.38;96422.53;110263;1247;71942;-66
2022/02/02 17:31:28;;;;;;;15.00;8.70;;;;;;;0.42;69.42;96426.46;110340;1247;68371;-65
2022/02/02 17:34:08;;;;;;;14.20;8.70;;;;;;;0.43;69.32;96426.91;110528;1244;68588;-66
2022/02/02 17:36:55;;;;;;;19.70;12.30;;;;;;;0.43;69.39;96426.41;110427;1245;59720;-66
2022/02/02 17:39:34;;;;;;;15.20;10.10;;;;;;;0.42;69.71;96422.52;110193;1245;59688;-67
2022/02/02 17:45:23;;;;;;;15.30;9.30;;;;;;;0.40;69.87;96422.44;110356;1247;67652;-66
2022/02/02 18:18:50;;;;;;;15.10;9.50;;;;;;;0.11;71.09;96440.10;110468;1244;59790;-66
2022/02/02 18:21:22;;;;;;;13.10;8.40;;;;;;;0.10;71.30;96440.32;110514;1245;59751;-69
2022/02/02 18:23:59;;;;;;;15.90;9.40;;;;;;;0.10;71.57;96438.42;110493;1247;71555;-67
2022/02/02 18:27:11;;;;;;;14.20;8.80;;;;;;;0.11;71.54;96439.60;110422;1246;69001;-66
2022/02/02 18:48:16;;;;;;;10.70;7.60;;;;;;;0.08;72.63;96458.20;110244;1247;60214;-65
2022/02/02 18:54:06;;;;;;;11.30;6.40;;;;;;;0.18;73.04;96479.01;110216;1244;68619;-67
2022/02/02 18:57:07;;;;;;;12.00;7.90;;;;;;;0.28;72.79;96484.55;110428;1244;69598;-66
2022/02/02 20:03:51;;;;;;;27.40;17.60;;;;;;;0.16;71.49;96525.35;110060;1247;68760;-66
2022/02/02 20:09:23;;;;;;;56.90;37.50;;;;;;;0.09;71.91;96526.54;110472;1247;59763;-67
2022/02/02 20:11:43;;;;;;;66.40;41.30;;;;;;;0.04;72.54;96530.17;110292;1247;59745;-68
2022/02/02 20:14:13;;;;;;;54.20;35.30;;;;;;;0.00;72.48;96535.66;110265;1247;71343;-69
2022/02/02 20:16:42;;;;;;;38.30;24.90;;;;;;;-0.03;72.74;96531.70;110266;1247;68491;-68
2022/02/02 20:19:12;;;;;;;30.30;21.50;;;;;;;-0.05;72.91;96534.33;110178;1248;70226;-66
2022/02/02 20:21:49;;;;;;;31.00;19.50;;;;;;;-0.06;72.86;96536.77;110223;1247;59743;-67
2022/02/02 20:24:22;;;;;;;46.00;29.10;;;;;;;-0.07;73.01;96546.40;110253;1247;59756;-67
2022/02/02 20:26:51;;;;;;;31.70;21.50;;;;;;;-0.10;73.11;96546.91;110246;1247;71401;-69
2022/02/02 20:29:20;;;;;;;34.10;23.80;;;;;;;-0.11;73.56;96546.29;110187;1247;67923;-68
2022/02/02 20:31:48;;;;;;;29.30;22.10;;;;;;;-0.13;73.58;96549.43;110152;1247;69825;-68
2022/02/02 20:34:17;;;;;;;41.90;26.20;;;;;;;-0.12;73.52;96551.82;110175;1247;59740;-65
2022/02/02 20:36:46;;;;;;;25.40;17.60;;;;;;;-0.12;73.44;96556.94;109891;1250;59708;-67
2022/02/02 20:42:09;;;;;;;40.90;32.10;;;;;;;-0.12;73.81;96558.48;110002;1248;66789;-67
2022/02/02 21:00:18;;;;;;;34.10;22.60;;;;;;;-0.13;72.83;96554.39;110521;1245;59787;-67
2022/02/02 21:14:46;;;;;;;36.40;24.60;;;;;;;-0.43;74.27;96591.31;110225;1247;59732;-69
2022/02/02 21:17:25;;;;;;;43.40;29.00;;;;;;;-0.44;74.37;96591.33;110446;1246;59690;-68
2022/02/02 21:20:19;;;;;;;33.90;21.00;;;;;;;-0.46;74.52;96590.06;110484;1246;72235;-66
2022/02/02 21:22:52;;;;;;;36.30;23.20;;;;;;;-0.47;74.40;96594.39;110513;1247;68407;-67
2022/02/02 21:27:59;;;;;;;29.90;19.00;;;;;;;-0.51;73.97;96598.98;110537;1245;59757;-68
2022/02/02 21:30:32;;;;;;;29.00;20.20;;;;;;;-0.55;74.58;96609.61;110303;1247;59676;-66
2022/02/02 21:33:02;;;;;;;24.40;16.80;;;;;;;-0.58;74.88;96614.84;109963;1247;70490;-66
2022/02/02 21:35:32;;;;;;;24.10;17.40;;;;;;;-0.59;75.00;96621.25;110574;1244;68771;-66
2022/02/02 21:38:07;;;;;;;14.20;10.80;;;;;;;-0.59;75.07;96629.65;110568;1244;70003;-67
2022/02/02 21:40:37;;;;;;;17.20;13.10;;;;;;;-0.57;74.70;96638.63;110527;1244;59742;-65
2022/02/02 21:43:06;;;;;;;19.70;13.30;;;;;;;-0.55;74.45;96643.84;110348;1247;59732;-66
2022/02/02 21:45:35;;;;;;;19.90;13.30;;;;;;;-0.51;74.31;96649.84;110139;1247;72230;-68
2022/02/02 21:48:04;;;;;;;16.60;12.70;;;;;;;-0.49;74.47;96655.41;110339;1246;69018;-67
2022/02/02 21:50:56;;;;;;;33.00;21.10;;;;;;;-0.47;74.83;96665.77;110503;1246;69377;-65
2022/02/02 21:53:25;;;;;;;62.50;37.20;;;;;;;-0.49;75.25;96671.86;110362;1246;59652;-66
2022/02/02 21:55:54;;;;;;;47.60;28.70;;;;;;;-0.55;75.47;96672.25;110300;1246;59685;-68
2022/02/02 21:58:24;;;;;;;52.60;33.90;;;;;;;-0.60;75.74;96671.41;110587;1244;72476;-69
2022/02/02 22:00:53;;;;;;;45.70;26.90;;;;;;;-0.62;75.39;96675.27;110467;1244;67921;-67
2022/02/02 22:03:21;;;;;;;59.30;36.00;;;;;;;-0.62;75.54;96682.81;110463;1246;68615;-65
2022/02/02 22:05:51;;;;;;;63.10;36.00;;;;;;;-0.66;76.21;96687.41;110507;1246;59593;-66
2022/02/02 22:08:20;;;;;;;46.80;31.30;;;;;;;-0.68;76.30;96688.87;110250;1247;59768;-66
2022/02/02 22:10:49;;;;;;;49.40;31.50;;;;;;;-0.68;76.12;96694.70;110122;1247;72165;-67
2022/02/02 22:13:19;;;;;;;51.30;31.20;;;;;;;-0.67;75.72;96699.11;110322;1246;69468;-66
2022/02/02 22:15:54;;;;;;;50.50;31.50;;;;;;;-0.67;75.99;96701.65;110426;1245;68616;-65
2022/02/02 22:18:24;;;;;;;61.10;37.30;;;;;;;-0.66;75.99;96694.95;110502;1244;59747;-66
2022/02/02 22:20:55;;;;;;;61.50;35.00;;;;;;;-0.67;75.82;96699.92;110513;1244;59703;-69